Time;durP1;ratioP1;P1;durP2;ratioP2;P2;SDS_P1;SDS_P2;PMS_P1;PMS_P2;Temp;Humidity;BMP_temperature;BMP_pressure;BME280_temperature;BME280_humidity;BME280_pressure;Samples;Min_cycle;Max_cycle;Signal;HPM_P1;HPM_P2
2022/03/21 00:03:17;;;;;;;13.27;11.67;;;8.50;71.10;;;;;;10417845;28;20556;-80
2022/03/21 00:08:22;;;;;;;14.50;13.00;;;8.50;70.90;;;;;;10421266;28;20567;-80
2022/03/21 00:13:24;;;;;;;15.10;13.67;;;8.40;71.50;;;;;;10416895;28;20228;-81
2022/03/21 00:18:28;;;;;;;15.90;13.00;;;8.40;71.60;;;;;;10421178;28;20217;-81
2022/03/21 00:23:31;;;;;;;18.60;13.83;;;8.40;71.10;;;;;;10424665;28;20196;-80
2022/03/21 00:28:33;;;;;;;16.50;14.80;;;8.30;70.70;;;;;;10420469;28;20236;-80
2022/03/21 00:33:37;;;;;;;14.53;13.10;;;8.20;71.40;;;;;;10426467;28;20349;-80
2022/03/21 00:38:41;;;;;;;15.17;13.07;;;8.20;71.20;;;;;;10433958;28;20243;-80
2022/03/21 00:43:43;;;;;;;14.00;12.50;;;8.00;71.00;;;;;;10445979;28;20202;-81
2022/03/21 00:48:46;;;;;;;15.07;13.47;;;8.00;71.10;;;;;;10444354;28;20229;-79
2022/03/21 00:53:48;;;;;;;18.33;12.90;;;7.90;71.40;;;;;;10434329;28;20542;-79
2022/03/21 00:58:51;;;;;;;15.57;12.83;;;7.90;72.10;;;;;;10425010;28;20283;-81
2022/03/21 01:03:54;;;;;;;13.23;11.93;;;7.80;71.90;;;;;;10440901;28;20603;-82
2022/03/21 01:08:57;;;;;;;15.70;13.73;;;7.90;71.50;;;;;;10442477;28;20229;-81
2022/03/21 01:13:59;;;;;;;13.10;11.80;;;7.80;71.60;;;;;;10444717;28;20243;-81
2022/03/21 01:19:02;;;;;;;13.13;11.73;;;7.80;71.60;;;;;;10491002;28;20220;-81
2022/03/21 01:24:05;;;;;;;15.30;12.30;;;7.80;72.40;;;;;;10438258;28;20661;-80
2022/03/21 01:29:07;;;;;;;13.23;11.90;;;7.70;72.70;;;;;;10450963;28;20495;-80
2022/03/21 01:34:10;;;;;;;13.00;11.70;;;7.70;72.10;;;;;;10460606;28;20662;-80
2022/03/21 01:39:12;;;;;;;13.70;12.23;;;7.70;72.50;;;;;;10473578;28;20225;-79
2022/03/21 01:44:16;;;;;;;14.10;12.70;;;7.70;72.50;;;;;;10448554;28;20279;-79
2022/03/21 01:49:19;;;;;;;14.10;12.60;;;7.70;74.40;;;;;;10436109;28;20734;-79
2022/03/21 01:59:42;;;;;;;15.13;12.20;;;7.70;74.60;;;;;;10417757;28;20724;-79
2022/03/21 02:04:45;;;;;;;14.37;12.97;;;7.70;73.20;;;;;;10451923;28;20653;-79
2022/03/21 02:09:47;;;;;;;12.83;11.53;;;7.80;73.40;;;;;;10440450;28;20223;-79
2022/03/21 02:14:50;;;;;;;13.40;12.10;;;7.80;73.00;;;;;;10439636;28;20599;-79
2022/03/21 02:19:55;;;;;;;12.60;11.30;;;7.70;72.60;;;;;;10430500;28;20217;-79
2022/03/21 02:25:04;;;;;;;13.80;12.37;;;7.70;72.10;;;;;;10412548;28;20197;-80
2022/03/21 02:30:10;;;;;;;14.37;12.90;;;7.60;72.50;;;;;;10439405;28;20221;-80
2022/03/21 02:35:14;;;;;;;14.00;12.50;;;7.50;74.20;;;;;;10438250;28;20229;-80
2022/03/21 02:40:17;;;;;;;14.50;12.10;;;7.50;74.10;;;;;;10418993;28;20230;-79
2022/03/21 02:45:21;;;;;;;14.50;12.47;;;7.50;73.70;;;;;;10421954;28;20661;-79
2022/03/21 02:50:31;;;;;;;14.23;12.80;;;7.60;74.40;;;;;;10466793;28;20635;-80
2022/03/21 02:55:34;;;;;;;14.47;12.97;;;7.60;74.30;;;;;;10446983;28;20274;-78
2022/03/21 03:00:37;;;;;;;14.33;12.80;;;7.60;73.30;;;;;;10460955;22;20230;-80
2022/03/21 03:05:40;;;;;;;14.77;13.20;;;7.60;74.60;;;;;;10435242;28;20231;-81
2022/03/21 03:10:42;;;;;;;13.90;12.50;;;7.60;75.70;;;;;;10451951;28;20296;-81
2022/03/21 03:15:47;;;;;;;13.80;12.27;;;7.70;74.70;;;;;;10462909;28;20656;-81
2022/03/21 03:20:50;;;;;;;13.97;12.47;;;7.70;74.10;;;;;;10432674;28;20222;-81
2022/03/21 03:25:58;;;;;;;15.27;13.67;;;7.60;74.70;;;;;;10436995;28;20228;-81
2022/03/21 03:31:02;;;;;;;13.17;11.87;;;7.50;75.00;;;;;;10450056;28;20218;-80
2022/03/21 03:36:05;;;;;;;19.30;12.97;;;7.50;73.70;;;;;;10453148;28;20201;-81
2022/03/21 03:41:08;;;;;;;13.03;11.73;;;7.40;74.90;;;;;;10457490;28;20259;-80
2022/03/21 03:46:12;;;;;;;13.60;12.20;;;7.40;73.80;;;;;;10426005;28;20201;-80
2022/03/21 03:51:15;;;;;;;12.50;11.20;;;7.20;74.20;;;;;;10424421;28;20218;-79
2022/03/21 03:56:17;;;;;;;15.63;12.63;;;7.20;73.90;;;;;;10417173;28;20272;-81
2022/03/21 04:01:20;;;;;;;14.10;12.67;;;7.10;74.70;;;;;;10436213;28;20245;-81
2022/03/21 04:06:25;;;;;;;13.83;12.20;;;7.10;74.50;;;;;;10448274;28;20197;-81
2022/03/21 04:11:27;;;;;;;15.27;13.63;;;7.00;74.20;;;;;;10443306;28;20246;-81
2022/03/21 04:16:31;;;;;;;13.30;11.50;;;7.00;74.40;;;;;;10457329;28;20201;-81
2022/03/21 04:21:33;;;;;;;12.80;11.27;;;7.00;74.60;;;;;;10457620;28;20687;-81
2022/03/21 04:26:35;;;;;;;15.00;13.40;;;7.00;74.20;;;;;;10430730;28;20229;-81
2022/03/21 04:31:38;;;;;;;14.50;13.00;;;7.00;77.10;;;;;;10454304;28;20240;-81
2022/03/21 04:36:42;;;;;;;14.30;12.83;;;7.10;75.90;;;;;;10457034;28;20267;-80
2022/03/21 04:41:45;;;;;;;16.20;13.00;;;7.20;76.40;;;;;;10444475;28;20190;-81
2022/03/21 04:46:48;;;;;;;16.77;14.17;;;7.40;76.30;;;;;;10410261;28;20198;-80
2022/03/21 04:51:50;;;;;;;19.07;16.63;;;7.50;76.10;;;;;;10412380;28;20595;-81
2022/03/21 04:56:52;;;;;;;14.60;13.20;;;7.50;75.80;;;;;;10455416;28;20235;-81
2022/03/21 05:01:56;;;;;;;13.63;12.30;;;7.60;72.20;;;;;;10441688;28;20207;-81
2022/03/21 05:06:58;;;;;;;10.50;9.50;;;7.50;71.30;;;;;;10457573;28;20217;-81
2022/03/21 05:12:00;;;;;;;13.80;12.40;;;7.40;72.70;;;;;;10462592;28;20289;-81
2022/03/21 05:17:05;;;;;;;12.63;11.43;;;7.20;73.40;;;;;;10428305;28;20603;-81
2022/03/21 05:22:08;;;;;;;14.00;12.43;;;7.10;73.30;;;;;;10416696;28;20198;-81
2022/03/21 05:32:30;;;;;;;17.40;12.47;;;7.00;74.40;;;;;;10453836;28;20772;-81
2022/03/21 05:37:33;;;;;;;14.17;12.70;;;7.00;74.80;;;;;;10430365;28;20713;-81
2022/03/21 05:42:35;;;;;;;13.23;11.50;;;6.90;74.20;;;;;;10445464;28;20285;-80
2022/03/21 05:48:50;;;;;;;14.87;13.37;;;6.90;73.10;;;;;;10452629;28;20286;-81
2022/03/21 05:53:02;;;;;;;15.57;12.67;;;6.90;75.20;;;;;;10466439;28;20219;-80
2022/03/21 05:58:04;;;;;;;16.93;13.30;;;6.90;71.90;;;;;;10447874;28;20232;-80
2022/03/21 06:03:09;;;;;;;15.20;13.60;;;7.00;71.00;;;;;;10428415;28;20197;-82
2022/03/21 06:08:11;;;;;;;15.00;13.27;;;7.00;71.60;;;;;;10419225;28;20224;-81
2022/03/21 06:13:14;;;;;;;15.10;13.20;;;7.00;74.80;;;;;;10452338;28;20247;-81
2022/03/21 06:18:17;;;;;;;14.37;12.87;;;7.10;73.30;;;;;;10464433;28;20756;-82
2022/03/21 06:23:19;;;;;;;16.73;14.77;;;7.10;73.20;;;;;;10436915;28;20193;-82
2022/03/21 06:28:22;;;;;;;14.20;12.80;;;7.20;74.20;;;;;;10461607;28;20223;-82
2022/03/21 06:33:27;;;;;;;15.60;13.67;;;7.20;75.30;;;;;;10433061;28;20221;-80
2022/03/21 06:38:30;;;;;;;13.90;12.40;;;7.40;74.90;;;;;;10416402;28;20217;-80
2022/03/21 06:43:32;;;;;;;14.40;12.90;;;7.50;74.60;;;;;;10419391;28;20201;-81
2022/03/21 06:48:35;;;;;;;19.67;13.50;;;7.60;75.00;;;;;;10426972;28;20263;-81
2022/03/21 06:53:38;;;;;;;14.60;12.97;;;7.70;76.10;;;;;;10453292;28;20229;-80
2022/03/21 06:58:40;;;;;;;15.20;13.60;;;7.80;73.20;;;;;;10431859;28;20333;-81
2022/03/21 07:03:43;;;;;;;16.30;14.50;;;8.00;73.50;;;;;;10421419;28;20229;-81
2022/03/21 07:08:51;;;;;;;15.90;13.33;;;8.10;72.00;;;;;;10427409;28;20213;-81
2022/03/21 07:13:53;;;;;;;19.03;14.67;;;8.20;72.10;;;;;;10422154;28;20278;-81
2022/03/21 07:18:56;;;;;;;15.63;14.10;;;8.30;70.90;;;;;;10436967;28;20654;-81
2022/03/21 07:23:58;;;;;;;15.40;13.93;;;8.40;71.30;;;;;;10462823;28;20201;-81
2022/03/21 07:29:01;;;;;;;16.27;14.57;;;8.50;74.10;;;;;;10457322;28;20221;-81
2022/03/21 07:34:04;;;;;;;15.30;13.63;;;8.70;72.60;;;;;;10417909;28;20222;-81
2022/03/21 07:39:07;;;;;;;16.30;14.20;;;8.80;71.20;;;;;;10419953;28;20213;-81
2022/03/21 07:44:09;;;;;;;15.63;13.63;;;8.90;71.00;;;;;;10433296;28;20223;-81
2022/03/21 07:49:13;;;;;;;14.60;13.10;;;9.00;72.80;;;;;;10456708;28;20658;-81
2022/03/21 07:54:21;;;;;;;16.20;14.50;;;9.10;73.60;;;;;;10445074;28;20217;-81
2022/03/21 07:59:23;;;;;;;21.03;15.27;;;9.40;73.50;;;;;;10439414;28;20221;-81
2022/03/21 08:04:27;;;;;;;15.73;14.13;;;9.60;72.40;;;;;;10448295;28;20193;-81
2022/03/21 08:09:29;;;;;;;15.03;13.50;;;9.90;73.40;;;;;;10422586;28;20300;-81
2022/03/21 08:14:31;;;;;;;17.43;13.40;;;10.10;70.00;;;;;;10414282;28;20308;-81
2022/03/21 08:19:35;;;;;;;16.30;14.57;;;10.40;70.60;;;;;;10424221;28;20214;-80
2022/03/21 08:24:38;;;;;;;16.93;14.10;;;10.60;68.90;;;;;;10431892;28;20220;-81
2022/03/21 08:29:40;;;;;;;17.83;15.67;;;10.80;70.10;;;;;;10424524;28;20210;-81
2022/03/21 08:34:43;;;;;;;15.43;13.87;;;11.00;69.50;;;;;;10430154;28;20463;-81
2022/03/21 08:39:45;;;;;;;15.60;13.70;;;11.20;70.00;;;;;;10436393;28;20225;-81
2022/03/21 08:44:47;;;;;;;16.37;13.97;;;11.40;69.20;;;;;;10438248;28;20225;-81
2022/03/21 08:49:51;;;;;;;17.90;14.60;;;11.50;66.30;;;;;;10411141;28;20307;-81
2022/03/21 08:54:54;;;;;;;15.10;13.50;;;11.70;67.40;;;;;;10426392;28;20228;-82
2022/03/21 08:59:57;;;;;;;22.80;14.47;;;11.90;68.60;;;;;;10417681;22;20234;-81
2022/03/21 09:05:04;;;;;;;16.50;13.80;;;12.00;67.10;;;;;;10364178;28;20203;-79
2022/03/21 09:10:08;;;;;;;17.20;14.23;;;12.20;66.50;;;;;;10373935;28;20686;-80
2022/03/21 09:15:10;;;;;;;19.70;13.00;;;12.30;64.40;;;;;;10374262;28;20325;-80
2022/03/21 09:20:14;;;;;;;18.00;13.30;;;12.50;65.00;;;;;;10364170;28;20245;-79
2022/03/21 09:25:17;;;;;;;14.57;13.00;;;12.60;64.20;;;;;;10376657;28;20240;-80
2022/03/21 09:30:19;;;;;;;15.37;13.57;;;12.80;62.70;;;;;;10365973;28;20267;-79
2022/03/21 09:35:22;;;;;;;15.70;14.13;;;12.90;66.10;;;;;;10367193;28;20245;-79
2022/03/21 09:40:25;;;;;;;16.27;14.60;;;13.20;63.30;;;;;;10369705;28;20230;-79
2022/03/21 09:45:29;;;;;;;19.10;13.60;;;13.50;64.60;;;;;;10370566;28;20647;-79
2022/03/21 09:50:35;;;;;;;16.87;14.83;;;13.80;65.00;;;;;;10368111;28;20229;-80
2022/03/21 09:55:38;;;;;;;15.00;13.50;;;14.00;66.70;;;;;;10371502;28;20226;-79
2022/03/21 10:00:42;;;;;;;15.90;14.30;;;14.20;64.20;;;;;;10408693;28;20233;-79
2022/03/21 10:05:46;;;;;;;17.13;12.80;;;14.50;64.80;;;;;;10447748;28;20221;-79
2022/03/21 10:10:53;;;;;;;16.57;13.70;;;14.60;62.90;;;;;;10448566;28;20225;-78
2022/03/21 10:16:11;;;;;;;17.00;15.00;;;14.80;64.20;;;;;;10449684;28;20250;-78
2022/03/21 10:21:16;;;;;;;17.23;14.60;;;14.80;60.40;;;;;;10445986;28;20229;-78
2022/03/21 10:26:28;;;;;;;16.03;13.80;;;14.70;61.40;;;;;;10444600;28;20215;-78
2022/03/21 10:31:38;;;;;;;16.07;13.40;;;14.70;61.40;;;;;;10442712;28;20217;-79
2022/03/21 10:37:00;;;;;;;17.77;14.70;;;14.70;62.90;;;;;;10433348;28;20276;-78
2022/03/21 10:42:05;;;;;;;16.73;14.93;;;14.80;63.10;;;;;;10438148;28;20288;-78
2022/03/21 10:47:08;;;;;;;18.37;15.10;;;14.90;64.70;;;;;;10432541;28;20209;-79
2022/03/21 10:52:17;;;;;;;17.83;14.93;;;15.00;62.30;;;;;;10435277;28;20285;-79
2022/03/21 10:57:32;;;;;;;18.17;15.40;;;15.10;64.40;;;;;;10440450;28;20324;-79
2022/03/21 11:02:35;;;;;;;18.53;16.10;;;15.20;61.20;;;;;;10437696;28;20209;-79
2022/03/21 11:07:39;;;;;;;19.13;16.07;;;15.20;58.60;;;;;;10424019;28;20256;-80
2022/03/21 11:12:42;;;;;;;17.37;15.43;;;15.20;58.70;;;;;;10426926;28;20303;-79
2022/03/21 11:17:45;;;;;;;18.00;15.90;;;15.20;59.80;;;;;;10443942;28;20276;-79
2022/03/21 11:22:49;;;;;;;16.53;14.83;;;15.30;58.20;;;;;;10441011;28;20286;-79
2022/03/21 11:28:28;;;;;;;17.30;14.53;;;15.30;59.80;;;;;;10436847;28;20220;-79
2022/03/21 11:33:39;;;;;;;17.63;14.43;;;15.40;59.00;;;;;;10419211;28;20224;-79
2022/03/21 11:38:45;;;;;;;16.87;14.97;;;15.40;59.20;;;;;;10432331;28;20225;-79
2022/03/21 11:44:07;;;;;;;22.13;16.97;;;15.30;61.90;;;;;;10436478;28;20198;-79
2022/03/21 11:49:43;;;;;;;17.93;16.13;;;15.20;59.50;;;;;;10441359;28;20593;-79
2022/03/21 11:54:47;;;;;;;17.87;16.00;;;15.10;56.90;;;;;;10414838;28;20239;-80
2022/03/21 11:59:54;;;;;;;16.20;14.50;;;14.90;56.50;;;;;;10448098;28;20668;-79
2022/03/21 12:04:58;;;;;;;17.00;15.20;;;14.80;57.70;;;;;;10464851;28;20199;-79
2022/03/21 12:10:02;;;;;;;18.00;15.17;;;14.70;61.30;;;;;;10454174;28;20675;-79
2022/03/21 12:15:14;;;;;;;18.53;15.40;;;14.60;59.30;;;;;;10458834;28;20216;-79
2022/03/21 12:20:18;;;;;;;17.60;15.20;;;14.60;62.90;;;;;;10422522;28;20689;-79
2022/03/21 12:25:41;;;;;;;15.47;13.80;;;14.50;57.80;;;;;;10455387;28;20204;-79
2022/03/21 12:30:48;;;;;;;16.10;14.40;;;14.50;61.80;;;;;;10459999;28;20304;-80
2022/03/21 12:35:58;;;;;;;16.77;15.03;;;14.50;59.00;;;;;;10441261;28;20225;-79
2022/03/21 12:41:05;;;;;;;18.03;15.13;;;14.40;60.30;;;;;;10444207;28;20692;-79
2022/03/21 12:46:16;;;;;;;14.23;12.77;;;14.50;55.90;;;;;;10459579;28;20663;-79
2022/03/21 12:51:27;;;;;;;16.33;14.10;;;14.60;58.20;;;;;;10438063;28;20236;-80
2022/03/21 12:56:31;;;;;;;14.90;13.13;;;14.70;56.80;;;;;;10439662;28;20267;-79
2022/03/21 13:01:34;;;;;;;19.90;13.50;;;14.80;57.00;;;;;;10435221;28;20224;-79
2022/03/21 13:11:58;;;;;;;12.20;10.57;;;14.90;57.60;;;;;;10454379;28;20212;-79
2022/03/21 13:17:02;;;;;;;16.20;11.30;;;15.00;61.50;;;;;;10436686;28;20227;-79
2022/03/21 13:22:06;;;;;;;15.33;12.50;;;15.10;60.30;;;;;;10456776;28;20247;-79
2022/03/21 13:27:11;;;;;;;12.03;10.67;;;15.10;59.20;;;;;;10458854;28;20189;-78
2022/03/21 13:32:13;;;;;;;12.00;9.80;;;15.20;56.50;;;;;;10455163;28;20209;-78
2022/03/21 13:37:19;;;;;;;13.20;10.43;;;15.20;55.50;;;;;;10454676;28;20573;-78
2022/03/21 13:42:26;;;;;;;11.80;10.47;;;15.20;59.30;;;;;;10460624;28;20225;-78
2022/03/21 13:47:28;;;;;;;12.80;10.50;;;15.10;60.90;;;;;;10469323;28;20908;-78
2022/03/21 13:52:42;;;;;;;11.90;9.90;;;15.10;59.90;;;;;;10465601;28;20260;-78
2022/03/21 13:58:07;;;;;;;16.57;11.77;;;15.10;60.60;;;;;;10471515;28;20230;-78
2022/03/21 14:03:10;;;;;;;12.70;11.13;;;15.00;56.70;;;;;;10469866;28;20192;-79
2022/03/21 14:08:15;;;;;;;12.47;11.03;;;15.00;59.60;;;;;;10465422;28;20242;-79
2022/03/21 14:13:23;;;;;;;12.27;10.30;;;14.90;58.20;;;;;;10461114;28;20620;-79
2022/03/21 14:18:27;;;;;;;12.37;11.07;;;15.00;59.40;;;;;;10459758;28;20593;-78
2022/03/21 14:23:30;;;;;;;11.60;9.77;;;15.00;58.70;;;;;;10462586;28;20204;-79
2022/03/21 14:28:34;;;;;;;15.73;12.63;;;15.00;58.50;;;;;;10465525;28;20689;-79
2022/03/21 14:33:36;;;;;;;12.83;11.13;;;15.00;61.10;;;;;;10471076;28;20213;-79
2022/03/21 14:38:39;;;;;;;12.53;10.50;;;15.00;61.10;;;;;;10453405;28;20252;-79
2022/03/21 14:43:44;;;;;;;13.50;11.20;;;15.00;62.80;;;;;;10441814;28;20200;-80
2022/03/21 14:48:46;;;;;;;13.87;10.40;;;14.90;59.60;;;;;;10453835;28;20223;-79
2022/03/21 14:53:48;;;;;;;15.50;13.10;;;14.90;60.00;;;;;;10452239;28;20197;-79
2022/03/21 14:58:56;;;;;;;13.30;11.90;;;14.90;59.40;;;;;;10443362;28;20228;-79
2022/03/21 15:03:58;;;;;;;15.30;11.47;;;14.80;64.40;;;;;;10441607;22;20234;-81
2022/03/21 15:09:00;;;;;;;15.17;13.60;;;14.80;60.70;;;;;;10419502;28;20210;-82
2022/03/21 15:14:04;;;;;;;13.20;11.80;;;14.80;60.20;;;;;;10377670;28;20709;-82
2022/03/21 15:19:07;;;;;;;15.57;12.60;;;14.80;60.40;;;;;;10404840;28;20228;-82
2022/03/21 15:24:09;;;;;;;16.30;13.33;;;14.80;65.60;;;;;;10393456;28;20210;-82
2022/03/21 15:29:12;;;;;;;15.27;12.07;;;14.80;62.50;;;;;;10375488;28;20199;-82
2022/03/21 15:34:15;;;;;;;14.57;12.67;;;14.80;60.40;;;;;;10382198;28;20215;-82
2022/03/21 15:44:38;;;;;;;13.23;11.70;;;14.70;62.80;;;;;;10381939;28;20833;-82
2022/03/21 15:49:40;;;;;;;14.37;11.90;;;14.70;68.80;;;;;;10390726;28;20209;-81
2022/03/21 15:54:43;;;;;;;15.43;12.97;;;14.50;70.70;;;;;;10404386;28;20210;-82
2022/03/21 15:59:46;;;;;;;13.67;11.57;;;14.40;70.60;;;;;;10390712;28;20261;-82
2022/03/21 16:04:49;;;;;;;18.40;12.10;;;14.40;62.70;;;;;;10379015;28;20255;-82
2022/03/21 16:09:51;;;;;;;12.97;11.53;;;14.40;66.60;;;;;;10385458;28;20909;-82
2022/03/21 16:14:55;;;;;;;13.50;10.50;;;14.40;61.80;;;;;;10402647;28;20222;-82
2022/03/21 16:19:57;;;;;;;11.77;10.10;;;14.40;66.70;;;;;;10422898;28;20229;-82
2022/03/21 16:24:59;;;;;;;15.10;10.30;;;14.40;67.60;;;;;;10392461;28;20278;-81
2022/03/21 16:30:03;;;;;;;13.10;9.47;;;14.30;71.60;;;;;;10389655;28;20705;-81
2022/03/21 16:35:07;;;;;;;11.57;10.43;;;14.20;73.20;;;;;;10378271;28;20694;-82
2022/03/21 16:40:10;;;;;;;12.73;9.73;;;14.10;69.50;;;;;;10423814;28;20599;-82
2022/03/21 16:45:14;;;;;;;10.97;9.70;;;14.10;63.60;;;;;;10401640;28;20606;-83
2022/03/21 16:50:16;;;;;;;12.00;9.47;;;14.00;67.50;;;;;;10400706;28;20218;-82
2022/03/21 16:55:18;;;;;;;10.40;8.50;;;14.00;69.40;;;;;;10373490;28;20210;-84
2022/03/21 17:00:22;;;;;;;14.20;9.63;;;14.00;65.70;;;;;;10417723;28;20286;-85
2022/03/21 17:05:24;;;;;;;13.10;10.63;;;13.90;71.30;;;;;;10393560;28;20198;-83
2022/03/21 17:10:29;;;;;;;10.40;9.07;;;13.80;71.40;;;;;;10389969;28;20226;-84
2022/03/21 17:15:33;;;;;;;13.07;9.30;;;13.80;65.30;;;;;;10384982;28;20843;-85
2022/03/21 17:25:57;;;;;;;11.97;9.67;;;13.70;70.00;;;;;;10422785;28;20193;-83
2022/03/21 17:31:01;;;;;;;11.43;9.13;;;13.60;68.60;;;;;;10408739;28;20236;-85
2022/03/21 17:36:04;;;;;;;10.23;9.07;;;13.50;67.20;;;;;;10419731;28;20206;-84
2022/03/21 17:41:07;;;;;;;10.53;8.13;;;13.50;67.60;;;;;;10427936;28;20222;-84
2022/03/21 17:46:11;;;;;;;10.50;9.47;;;13.40;66.70;;;;;;10417370;28;20280;-85
2022/03/21 17:51:13;;;;;;;12.13;10.00;;;13.30;67.20;;;;;;10397159;28;20253;-84
2022/03/21 17:56:15;;;;;;;63.10;43.70;;;13.20;66.60;;;;;;10403130;28;20223;-83
2022/03/21 18:01:20;;;;;;;15.87;13.90;;;13.00;67.30;;;;;;10404896;28;20260;-83
2022/03/21 18:06:22;;;;;;;15.60;14.00;;;12.90;67.20;;;;;;10386125;28;20278;-83
2022/03/21 18:11:24;;;;;;;19.80;17.70;;;12.80;65.90;;;;;;10400028;28;20230;-83
2022/03/21 18:16:33;;;;;;;17.73;14.00;;;12.60;65.80;;;;;;10394635;28;20214;-83
2022/03/21 18:21:35;;;;;;;13.10;11.70;;;12.50;66.00;;;;;;10416921;28;20219;-83
2022/03/21 18:26:37;;;;;;;13.83;12.03;;;12.40;66.60;;;;;;10400005;28;20202;-83
2022/03/21 18:31:40;;;;;;;14.10;11.87;;;12.30;67.00;;;;;;10390326;28;20214;-83
2022/03/21 18:36:43;;;;;;;11.77;10.47;;;12.10;66.90;;;;;;10373991;28;20206;-83
2022/03/21 18:41:45;;;;;;;13.27;11.50;;;12.00;67.80;;;;;;10381909;28;20309;-83
2022/03/21 18:46:48;;;;;;;14.50;11.60;;;11.90;68.40;;;;;;10408582;28;20213;-83
2022/03/21 18:51:50;;;;;;;12.57;11.03;;;11.80;68.20;;;;;;10412706;28;20616;-83
2022/03/21 18:56:52;;;;;;;17.23;11.80;;;11.70;67.90;;;;;;10389025;28;20651;-84
2022/03/21 19:01:56;;;;;;;13.20;11.60;;;11.70;68.80;;;;;;10373507;28;20232;-83
2022/03/21 19:07:00;;;;;;;16.40;13.90;;;11.50;69.50;;;;;;10408739;28;20225;-83
2022/03/21 19:12:02;;;;;;;12.93;11.63;;;11.50;69.80;;;;;;10365338;28;20590;-83
2022/03/21 19:17:06;;;;;;;13.60;12.00;;;11.40;68.00;;;;;;10374970;28;20222;-82
2022/03/21 19:22:08;;;;;;;13.60;11.80;;;11.50;66.30;;;;;;10389836;28;20223;-86
2022/03/21 19:27:10;;;;;;;11.00;9.90;;;11.50;67.90;;;;;;10372631;28;20260;-86
2022/03/21 19:32:14;;;;;;;12.87;11.27;;;11.50;67.50;;;;;;10373675;28;20214;-85
2022/03/21 19:37:16;;;;;;;11.87;10.60;;;11.40;67.10;;;;;;10364040;28;20286;-85
2022/03/21 19:47:45;;;;;;;12.07;10.83;;;11.40;65.30;;;;;;10360584;28;20331;-86
2022/03/21 19:52:48;;;;;;;12.17;10.97;;;11.40;64.30;;;;;;10372071;28;20447;-87
2022/03/21 19:57:51;;;;;;;12.70;10.10;;;11.40;63.60;;;;;;10380333;28;20222;-86
2022/03/21 20:02:56;;;;;;;12.43;10.77;;;11.30;63.00;;;;;;10363624;28;20235;-85
2022/03/21 20:07:58;;;;;;;15.00;10.30;;;11.20;62.10;;;;;;10364604;28;20571;-85
2022/03/21 20:13:00;;;;;;;12.00;10.40;;;11.00;63.00;;;;;;10376965;28;20277;-85
2022/03/21 20:18:04;;;;;;;11.57;10.27;;;11.00;65.00;;;;;;10368124;28;20267;-86
2022/03/21 20:23:06;;;;;;;11.97;10.80;;;10.90;63.50;;;;;;10367125;28;20222;-84
2022/03/21 20:28:10;;;;;;;12.37;10.83;;;10.80;62.80;;;;;;10401080;28;20208;-84
2022/03/21 20:33:13;;;;;;;11.70;10.50;;;10.70;63.30;;;;;;10386836;28;20303;-84
2022/03/21 20:38:16;;;;;;;12.50;11.20;;;10.60;62.60;;;;;;10398285;28;20275;-85
2022/03/21 20:43:19;;;;;;;12.27;10.77;;;10.50;64.10;;;;;;10396104;28;20275;-86
2022/03/21 20:48:23;;;;;;;13.57;11.90;;;10.30;66.30;;;;;;10402206;28;20502;-85
2022/03/21 20:53:26;;;;;;;13.70;12.40;;;10.20;64.30;;;;;;10385458;28;20227;-85
2022/03/21 20:58:28;;;;;;;13.90;12.60;;;10.20;64.90;;;;;;10383849;28;20275;-86
2022/03/21 21:03:31;;;;;;;14.27;12.50;;;10.10;66.20;;;;;;10400376;28;20271;-87
2022/03/21 21:08:33;;;;;;;16.93;15.13;;;10.00;64.90;;;;;;10398619;28;20260;-85
2022/03/21 21:13:36;;;;;;;16.07;14.40;;;9.90;65.20;;;;;;10391747;28;20252;-85
2022/03/21 21:18:40;;;;;;;20.30;16.60;;;9.80;66.10;;;;;;10377909;28;20249;-85
2022/03/21 21:23:42;;;;;;;16.83;14.77;;;9.70;65.10;;;;;;10395771;28;20224;-85
2022/03/21 21:28:44;;;;;;;16.00;13.20;;;9.60;64.80;;;;;;10371826;28;20288;-87
2022/03/21 21:33:48;;;;;;;15.57;13.93;;;9.40;64.70;;;;;;10394503;28;20241;-86
2022/03/21 21:38:51;;;;;;;16.80;14.93;;;9.30;64.80;;;;;;10405798;28;20258;-85
2022/03/21 21:43:54;;;;;;;17.97;15.23;;;9.20;65.30;;;;;;10365815;28;20226;-85
2022/03/21 21:48:57;;;;;;;13.33;12.00;;;9.10;64.70;;;;;;10364593;28;20207;-84
2022/03/21 21:54:00;;;;;;;13.13;11.73;;;9.00;64.50;;;;;;10414055;28;20784;-84
2022/03/21 21:59:02;;;;;;;14.30;12.10;;;8.80;65.10;;;;;;10395310;28;20232;-84
2022/03/21 22:04:05;;;;;;;13.53;12.23;;;8.80;65.40;;;;;;10384578;28;21001;-84
2022/03/21 22:09:08;;;;;;;13.10;11.70;;;8.70;66.30;;;;;;10408414;28;20563;-85
2022/03/21 22:14:11;;;;;;;13.40;12.00;;;8.60;67.70;;;;;;10382401;28;20225;-85
2022/03/21 22:19:15;;;;;;;14.93;11.57;;;8.60;67.50;;;;;;10370241;28;20219;-85
2022/03/21 22:24:17;;;;;;;13.20;11.90;;;8.60;67.10;;;;;;10399876;28;20261;-85
2022/03/21 22:29:19;;;;;;;13.83;11.67;;;8.60;66.00;;;;;;10386224;28;20203;-84
2022/03/21 22:34:23;;;;;;;14.00;12.70;;;8.60;66.00;;;;;;10379259;28;20653;-85
2022/03/21 22:39:25;;;;;;;14.20;12.10;;;8.50;65.60;;;;;;10384528;28;20675;-84
2022/03/21 22:49:52;;;;;;;17.10;13.30;;;8.30;65.60;;;;;;10379641;28;20284;-84
2022/03/21 22:54:55;;;;;;;14.37;12.83;;;8.20;66.00;;;;;;10378516;28;20344;-84
2022/03/21 22:59:58;;;;;;;14.13;12.73;;;8.10;65.60;;;;;;10392968;28;20310;-84
2022/03/21 23:05:02;;;;;;;12.50;11.20;;;8.10;65.10;;;;;;10384891;28;20201;-84
2022/03/21 23:10:04;;;;;;;12.77;11.47;;;8.00;66.60;;;;;;10382945;28;20642;-84
2022/03/21 23:15:07;;;;;;;15.60;11.90;;;7.90;66.50;;;;;;10413826;28;20213;-84
2022/03/21 23:20:12;;;;;;;13.23;11.73;;;7.90;67.20;;;;;;10403777;28;20635;-85
2022/03/21 23:25:14;;;;;;;14.47;12.93;;;7.80;68.60;;;;;;10411164;28;20199;-84
2022/03/21 23:30:16;;;;;;;14.50;13.00;;;7.80;69.20;;;;;;10397197;28;20272;-84
2022/03/21 23:35:20;;;;;;;13.20;11.90;;;7.80;70.00;;;;;;10364598;28;20310;-85
2022/03/21 23:45:42;;;;;;;13.90;12.50;;;7.80;70.10;;;;;;10390529;28;20197;-85
2022/03/21 23:50:47;;;;;;;16.67;12.03;;;7.70;71.30;;;;;;10391244;28;20232;-85
2022/03/21 23:55:50;;;;;;;14.80;13.30;;;7.70;71.30;;;;;;10372105;28;20614;-84
